Time;durP1;ratioP1;P1;durP2;ratioP2;P2;SDS_P1;SDS_P2;PMS_P1;PMS_P2;Temp;Humidity;BMP_temperature;BMP_pressure;BME280_temperature;BME280_humidity;BME280_pressure;Samples;Min_cycle;Max_cycle;Signal;HPM_P1;HPM_P2
2022/11/09 00:02:22;;;;;;;3.08;2.20;;;12.60;99.90;;;;;;5043335;28;20191;-78
2022/11/09 00:04:48;;;;;;;4.60;2.88;;;12.60;99.90;;;;;;5048037;28;20045;-78
2022/11/09 00:07:14;;;;;;;4.47;2.63;;;12.50;99.90;;;;;;5047920;28;20053;-78
2022/11/09 00:09:40;;;;;;;4.85;2.45;;;12.60;99.90;;;;;;5051029;28;20055;-78
2022/11/09 00:12:06;;;;;;;4.30;2.05;;;12.60;99.90;;;;;;5044486;28;20052;-78
2022/11/09 00:14:33;;;;;;;3.80;2.10;;;12.60;99.90;;;;;;5040394;28;20052;-78
2022/11/09 00:16:59;;;;;;;5.55;2.25;;;12.60;99.90;;;;;;5041868;28;20056;-77
2022/11/09 00:19:25;;;;;;;5.32;2.15;;;12.60;99.90;;;;;;5051021;28;20064;-77
2022/11/09 00:21:50;;;;;;;4.40;2.05;;;12.60;99.90;;;;;;5050653;28;20044;-77
2022/11/09 00:24:16;;;;;;;2.08;1.90;;;12.60;99.90;;;;;;5054473;28;20520;-76
2022/11/09 00:26:42;;;;;;;3.70;2.13;;;12.60;99.90;;;;;;5049662;28;20118;-77
2022/11/09 00:29:08;;;;;;;3.13;1.85;;;12.60;99.90;;;;;;5052108;28;20044;-77
2022/11/09 00:31:34;;;;;;;3.63;1.50;;;12.70;99.90;;;;;;5052411;28;20044;-77
2022/11/09 00:33:59;;;;;;;2.83;1.70;;;12.70;99.90;;;;;;5048242;28;20044;-77
2022/11/09 00:36:28;;;;;;;2.53;1.75;;;12.60;99.90;;;;;;5050146;28;20793;-77
2022/11/09 00:38:56;;;;;;;2.60;1.90;;;12.60;99.90;;;;;;5047844;28;20102;-77
2022/11/09 00:41:22;;;;;;;4.28;1.85;;;12.50;99.90;;;;;;5057499;28;20124;-77
2022/11/09 00:43:49;;;;;;;3.05;1.92;;;12.50;99.90;;;;;;5042795;28;20045;-77
2022/11/09 00:46:15;;;;;;;1.60;1.50;;;12.40;99.90;;;;;;5049250;28;20223;-77
2022/11/09 00:48:41;;;;;;;4.45;1.73;;;12.40;99.90;;;;;;5057426;28;20063;-77
2022/11/09 00:51:07;;;;;;;1.75;1.65;;;12.30;99.90;;;;;;5053633;28;20049;-77
2022/11/09 00:53:33;;;;;;;3.28;2.10;;;12.30;99.90;;;;;;5048386;28;20141;-77
2022/11/09 00:56:04;;;;;;;4.63;1.92;;;12.30;99.90;;;;;;5055853;28;20152;-77
2022/11/09 00:58:32;;;;;;;4.55;2.20;;;12.20;99.90;;;;;;5057200;28;20063;-77
2022/11/09 01:01:03;;;;;;;6.03;2.58;;;12.20;99.90;;;;;;5041996;28;20727;-77
2022/11/09 01:03:29;;;;;;;4.07;2.45;;;12.20;99.90;;;;;;5055470;28;20088;-77
2022/11/09 01:05:58;;;;;;;5.57;2.10;;;12.20;99.90;;;;;;5037416;28;20544;-77
2022/11/09 01:08:24;;;;;;;6.00;2.58;;;12.30;99.90;;;;;;5037020;28;20048;-77
2022/11/09 01:10:50;;;;;;;3.22;2.58;;;12.20;99.90;;;;;;5036998;28;20715;-77
2022/11/09 01:13:17;;;;;;;6.88;2.13;;;12.20;99.90;;;;;;5046696;28;20681;-77
2022/11/09 01:15:49;;;;;;;3.78;2.65;;;12.20;99.90;;;;;;5053747;28;20074;-77
2022/11/09 01:18:16;;;;;;;6.75;2.20;;;12.30;99.90;;;;;;5039648;28;20060;-77
2022/11/09 01:20:45;;;;;;;3.35;3.05;;;12.30;99.90;;;;;;5043697;28;20059;-77
2022/11/09 01:23:12;;;;;;;6.05;2.75;;;12.30;99.90;;;;;;5055344;28;20053;-77
2022/11/09 01:25:38;;;;;;;3.05;2.65;;;12.30;99.90;;;;;;5049233;28;20119;-77
2022/11/09 01:28:05;;;;;;;7.18;2.63;;;12.30;99.90;;;;;;5050162;28;20052;-77
2022/11/09 01:30:39;;;;;;;4.32;2.85;;;12.30;99.90;;;;;;5054241;28;20816;-77
2022/11/09 01:33:08;;;;;;;4.70;2.38;;;12.30;99.90;;;;;;5042613;28;20124;-77
2022/11/09 01:35:35;;;;;;;6.07;2.95;;;12.20;99.90;;;;;;5038865;28;20032;-77
2022/11/09 01:38:03;;;;;;;4.07;2.58;;;12.30;99.90;;;;;;5043638;28;20785;-77
2022/11/09 01:40:30;;;;;;;5.72;2.53;;;12.20;99.90;;;;;;5037549;28;20045;-76
2022/11/09 01:42:56;;;;;;;5.75;2.40;;;12.20;99.90;;;;;;5047481;28;20044;-76
2022/11/09 01:45:29;;;;;;;3.38;2.53;;;12.20;99.90;;;;;;5049311;28;20059;-77
2022/11/09 01:48:10;;;;;;;4.25;2.35;;;12.20;99.90;;;;;;5049077;28;20084;-77
2022/11/09 01:50:53;;;;;;;5.85;2.70;;;12.20;99.90;;;;;;5047930;28;20054;-76
2022/11/09 01:53:24;;;;;;;3.53;2.67;;;12.20;99.90;;;;;;5045501;28;20048;-77
2022/11/09 01:55:53;;;;;;;8.07;2.90;;;12.20;99.90;;;;;;5047854;28;20044;-77
2022/11/09 01:58:36;;;;;;;6.65;2.58;;;12.20;99.90;;;;;;5051545;28;20050;-76
2022/11/09 02:01:02;;;;;;;6.93;2.45;;;12.20;99.90;;;;;;5051410;28;20938;-76
2022/11/09 02:03:39;;;;;;;3.65;2.80;;;12.20;99.90;;;;;;5054225;28;20059;-77
2022/11/09 02:06:08;;;;;;;3.40;2.40;;;12.20;99.90;;;;;;5052030;28;20134;-77
2022/11/09 02:08:34;;;;;;;7.63;2.72;;;12.20;99.90;;;;;;5047828;28;20052;-77
2022/11/09 02:11:12;;;;;;;6.38;3.15;;;12.20;99.90;;;;;;5049465;28;20079;-77
2022/11/09 02:13:41;;;;;;;5.90;2.75;;;12.20;99.90;;;;;;5050661;28;20123;-76
2022/11/09 02:16:09;;;;;;;5.90;3.13;;;12.20;99.90;;;;;;5051434;28;20516;-76
2022/11/09 02:18:37;;;;;;;5.07;2.63;;;12.20;99.90;;;;;;5042966;28;20101;-77
2022/11/09 02:21:03;;;;;;;5.15;2.42;;;12.10;99.90;;;;;;5046248;28;20832;-76
2022/11/09 02:23:29;;;;;;;4.57;2.53;;;12.10;99.90;;;;;;5046475;28;20045;-76
2022/11/09 02:26:07;;;;;;;5.45;2.63;;;12.10;99.90;;;;;;5052110;28;20523;-76
2022/11/09 02:28:36;;;;;;;5.18;2.53;;;12.00;99.90;;;;;;5049809;28;20053;-76
2022/11/09 02:31:03;;;;;;;3.28;2.97;;;12.00;99.90;;;;;;5042965;28;20044;-76
2022/11/09 02:33:38;;;;;;;3.53;2.63;;;12.00;99.90;;;;;;5050860;28;20032;-76
2022/11/09 02:36:04;;;;;;;8.65;2.83;;;12.00;99.90;;;;;;5058396;28;20048;-76
2022/11/09 02:38:30;;;;;;;8.57;3.10;;;12.00;99.90;;;;;;5046635;28;20049;-76
2022/11/09 02:40:55;;;;;;;5.22;2.85;;;12.00;99.90;;;;;;5057703;28;20783;-76
2022/11/09 02:43:22;;;;;;;8.38;3.70;;;11.90;99.90;;;;;;5054282;28;20060;-76
2022/11/09 02:45:47;;;;;;;3.22;2.60;;;12.00;99.90;;;;;;5048129;28;20416;-76
2022/11/09 02:48:13;;;;;;;6.53;2.92;;;11.90;99.90;;;;;;5050891;28;20053;-76
2022/11/09 02:50:38;;;;;;;4.63;2.55;;;11.90;99.90;;;;;;5048087;28;20055;-76
2022/11/09 02:53:04;;;;;;;7.05;3.13;;;12.00;99.90;;;;;;5054346;28;20044;-77
2022/11/09 02:55:30;;;;;;;4.35;2.60;;;12.00;99.90;;;;;;5053028;28;20045;-77
2022/11/09 02:57:56;;;;;;;6.20;3.28;;;11.90;99.90;;;;;;5052806;28;20048;-77
2022/11/09 03:00:21;;;;;;;5.63;2.45;;;11.90;99.90;;;;;;5055603;28;20052;-77
2022/11/09 03:02:48;;;;;;;9.35;2.42;;;11.90;99.90;;;;;;5054608;28;20048;-77
2022/11/09 03:05:13;;;;;;;7.40;2.75;;;11.90;99.90;;;;;;5046680;28;20072;-76
2022/11/09 03:07:39;;;;;;;6.65;2.63;;;11.90;99.90;;;;;;5054446;28;20583;-76
2022/11/09 03:10:05;;;;;;;4.82;2.60;;;11.90;99.90;;;;;;5051926;28;20052;-76
2022/11/09 03:12:31;;;;;;;4.97;3.00;;;11.90;99.90;;;;;;5052331;28;20044;-76
2022/11/09 03:14:59;;;;;;;8.40;2.80;;;11.90;99.90;;;;;;5048735;28;20055;-76
2022/11/09 03:17:25;;;;;;;6.25;2.70;;;11.90;99.90;;;;;;5052422;28;20045;-76
2022/11/09 03:19:51;;;;;;;5.35;2.80;;;11.90;99.90;;;;;;5045950;28;20048;-76
2022/11/09 03:22:17;;;;;;;5.25;2.63;;;11.90;99.90;;;;;;5051449;28;20079;-76
2022/11/09 03:24:42;;;;;;;7.32;3.20;;;11.90;99.90;;;;;;5050390;28;20141;-76
2022/11/09 03:27:08;;;;;;;6.75;2.67;;;11.90;99.90;;;;;;5048106;28;20224;-76
2022/11/09 03:29:34;;;;;;;5.55;3.00;;;11.90;99.90;;;;;;5049235;28;20044;-77
2022/11/09 03:31:59;;;;;;;6.25;2.67;;;11.90;99.90;;;;;;5041506;28;20167;-76
2022/11/09 03:34:25;;;;;;;4.85;2.65;;;11.90;99.90;;;;;;5043779;28;20076;-76
2022/11/09 03:36:51;;;;;;;7.00;3.33;;;11.90;99.90;;;;;;5043667;28;20083;-76
2022/11/09 03:39:16;;;;;;;5.53;2.80;;;11.90;99.90;;;;;;5050747;28;20080;-76
2022/11/09 03:41:42;;;;;;;7.03;2.50;;;11.90;99.90;;;;;;5046449;28;20101;-76
2022/11/09 03:44:08;;;;;;;8.95;2.60;;;11.90;99.90;;;;;;5041550;28;20040;-76
2022/11/09 03:46:33;;;;;;;7.65;2.60;;;11.90;99.90;;;;;;5055842;28;20052;-76
2022/11/09 03:48:59;;;;;;;5.40;2.40;;;11.90;99.90;;;;;;5051215;28;20347;-76
2022/11/09 03:51:25;;;;;;;5.10;3.13;;;11.90;99.90;;;;;;5043668;28;20055;-76
2022/11/09 03:53:50;;;;;;;5.30;2.50;;;11.90;99.90;;;;;;5053099;28;20041;-77
2022/11/09 03:56:16;;;;;;;4.50;2.53;;;11.90;99.90;;;;;;5043283;28;20049;-77
2022/11/09 03:58:42;;;;;;;3.90;2.22;;;11.90;99.90;;;;;;5044751;28;20738;-77
2022/11/09 04:01:07;;;;;;;4.32;2.25;;;11.80;99.90;;;;;;5048300;28;20051;-77
2022/11/09 04:03:33;;;;;;;6.63;2.70;;;11.90;99.90;;;;;;5050391;28;20044;-77
2022/11/09 04:05:59;;;;;;;5.10;2.30;;;11.80;99.90;;;;;;5052851;28;20607;-77
2022/11/09 04:08:25;;;;;;;4.75;2.05;;;11.80;99.90;;;;;;5043831;28;20330;-77
2022/11/09 04:10:50;;;;;;;5.03;3.20;;;11.80;99.90;;;;;;5055730;28;20052;-77
2022/11/09 04:13:16;;;;;;;7.07;3.17;;;11.80;99.90;;;;;;5048873;28;20932;-78
2022/11/09 04:15:42;;;;;;;6.97;3.33;;;11.80;99.90;;;;;;5039713;28;20061;-77
2022/11/09 04:18:14;;;;;;;6.60;3.20;;;11.80;99.90;;;;;;5053051;28;20045;-77
2022/11/09 04:20:40;;;;;;;8.68;2.80;;;11.70;99.90;;;;;;5049782;28;20045;-78
2022/11/09 04:23:08;;;;;;;4.60;2.30;;;11.70;99.90;;;;;;5045752;28;20040;-78
2022/11/09 04:25:36;;;;;;;6.90;2.55;;;11.70;99.90;;;;;;5050697;28;20045;-77
2022/11/09 04:28:03;;;;;;;8.82;3.20;;;11.70;99.90;;;;;;5052436;28;20036;-76
2022/11/09 04:30:31;;;;;;;9.70;3.10;;;11.60;99.90;;;;;;5053972;28;20094;-77
2022/11/09 04:32:58;;;;;;;7.20;3.10;;;11.60;99.90;;;;;;5041099;28;20041;-77
2022/11/09 04:35:25;;;;;;;6.75;3.22;;;11.60;99.90;;;;;;5049985;28;20048;-77
2022/11/09 04:37:56;;;;;;;6.93;3.38;;;11.60;99.90;;;;;;5049999;28;20048;-77
2022/11/09 04:40:23;;;;;;;6.72;2.45;;;11.60;99.90;;;;;;5045538;28;20108;-77
2022/11/09 04:42:49;;;;;;;4.95;2.72;;;11.60;99.90;;;;;;5040504;28;20132;-77
2022/11/09 04:45:15;;;;;;;5.32;3.10;;;11.60;99.90;;;;;;5051046;28;20044;-76
2022/11/09 04:47:40;;;;;;;7.60;2.78;;;11.60;99.90;;;;;;5046216;28;20048;-77
2022/11/09 04:50:07;;;;;;;10.50;4.28;;;11.60;99.90;;;;;;5046708;28;20041;-77
2022/11/09 04:52:32;;;;;;;6.13;2.70;;;11.60;99.90;;;;;;5043051;28;20044;-77
2022/11/09 04:54:58;;;;;;;6.35;3.13;;;11.70;99.90;;;;;;5047920;28;20044;-77
2022/11/09 04:57:24;;;;;;;7.13;3.25;;;11.70;99.90;;;;;;5041797;28;20052;-76
2022/11/09 04:59:49;;;;;;;10.32;2.80;;;11.70;99.90;;;;;;5051773;28;20037;-77
2022/11/09 05:02:15;;;;;;;7.82;2.72;;;11.80;99.90;;;;;;5046332;28;21322;-77
2022/11/09 05:04:41;;;;;;;5.85;2.65;;;11.80;99.90;;;;;;5056767;28;20060;-77
2022/11/09 05:07:06;;;;;;;6.10;5.25;;;11.80;99.90;;;;;;5053320;28;20052;-77
2022/11/09 05:09:32;;;;;;;5.47;2.97;;;11.90;99.90;;;;;;5052840;28;20044;-76
2022/11/09 05:11:58;;;;;;;6.45;2.88;;;12.00;99.90;;;;;;5052180;28;20052;-76
2022/11/09 05:14:23;;;;;;;7.80;2.70;;;12.00;99.90;;;;;;5046798;28;20032;-77
2022/11/09 05:16:49;;;;;;;6.40;2.55;;;12.00;99.90;;;;;;5042527;28;20057;-76
2022/11/09 05:19:15;;;;;;;8.88;2.45;;;12.00;99.90;;;;;;5047656;28;20127;-77
2022/11/09 05:21:40;;;;;;;6.03;2.78;;;12.00;99.90;;;;;;5046188;28;20899;-77
2022/11/09 05:24:06;;;;;;;6.93;2.85;;;12.00;99.90;;;;;;5044865;28;20048;-77
2022/11/09 05:26:34;;;;;;;4.35;2.60;;;12.00;99.90;;;;;;5047292;28;20813;-77
2022/11/09 05:29:03;;;;;;;4.15;2.65;;;12.10;99.90;;;;;;5047218;28;20044;-77
2022/11/09 05:31:29;;;;;;;7.65;2.67;;;12.10;99.90;;;;;;5049084;28;20045;-77
2022/11/09 05:33:55;;;;;;;4.07;2.40;;;12.10;99.90;;;;;;5051171;28;20074;-78
2022/11/09 05:36:21;;;;;;;9.35;2.78;;;12.20;99.90;;;;;;5043252;28;20048;-78
2022/11/09 05:38:47;;;;;;;6.30;2.60;;;12.20;99.90;;;;;;5049351;28;20048;-77
2022/11/09 05:41:13;;;;;;;8.68;3.10;;;12.30;99.90;;;;;;5047824;28;20045;-77
2022/11/09 05:43:39;;;;;;;3.95;2.88;;;12.30;99.90;;;;;;5042036;28;20111;-78
2022/11/09 05:46:05;;;;;;;13.07;4.00;;;12.30;99.90;;;;;;5051935;28;20058;-78
2022/11/09 05:48:31;;;;;;;5.07;2.47;;;12.20;99.90;;;;;;5044962;28;20075;-77
2022/11/09 05:51:01;;;;;;;9.05;2.42;;;12.10;99.90;;;;;;5046189;28;20044;-77
2022/11/09 05:53:26;;;;;;;5.88;3.08;;;12.20;99.90;;;;;;5041944;28;21082;-78
2022/11/09 05:55:52;;;;;;;6.70;2.40;;;12.10;99.90;;;;;;5038596;28;20049;-77
2022/11/09 05:58:18;;;;;;;4.32;2.63;;;12.10;99.90;;;;;;5044638;28;20477;-77
2022/11/09 06:00:44;;;;;;;6.45;3.08;;;12.10;99.90;;;;;;5043943;28;20759;-77
2022/11/09 06:03:10;;;;;;;6.07;2.80;;;12.00;99.90;;;;;;5045710;28;20049;-78
2022/11/09 06:05:38;;;;;;;9.50;2.45;;;12.20;99.90;;;;;;5051115;28;20134;-77
2022/11/09 06:08:06;;;;;;;5.13;2.47;;;12.00;99.90;;;;;;5046651;28;20048;-78
2022/11/09 06:10:32;;;;;;;8.98;2.83;;;12.00;99.90;;;;;;5046832;28;20080;-78
2022/11/09 06:12:58;;;;;;;5.15;2.58;;;12.00;99.90;;;;;;5051984;28;20155;-78
2022/11/09 06:15:23;;;;;;;5.03;2.40;;;11.90;99.90;;;;;;5048673;28;20063;-78
2022/11/09 06:17:57;;;;;;;4.55;2.15;;;11.90;99.90;;;;;;5052106;28;20048;-78
2022/11/09 06:20:25;;;;;;;6.82;2.67;;;11.90;99.90;;;;;;5051199;28;20094;-77
2022/11/09 06:23:03;;;;;;;5.68;2.42;;;11.90;99.90;;;;;;5051042;28;20063;-78
2022/11/09 06:25:30;;;;;;;7.43;2.28;;;11.80;99.90;;;;;;5044779;28;20485;-78
2022/11/09 06:27:57;;;;;;;4.47;2.28;;;11.80;99.90;;;;;;5049790;28;20059;-78
2022/11/09 06:30:23;;;;;;;5.13;2.13;;;11.80;99.90;;;;;;5047505;28;20721;-77
2022/11/09 06:32:48;;;;;;;3.45;2.13;;;11.80;99.90;;;;;;5040368;28;20041;-78
2022/11/09 06:35:14;;;;;;;4.82;2.30;;;11.70;99.90;;;;;;5044615;28;20061;-78
2022/11/09 06:37:40;;;;;;;4.15;1.92;;;11.60;99.90;;;;;;5047820;28;20052;-77
2022/11/09 06:40:06;;;;;;;5.07;2.75;;;11.70;99.90;;;;;;5046867;28;20040;-78
2022/11/09 06:42:32;;;;;;;5.65;2.50;;;11.70;99.90;;;;;;5044623;28;20432;-78
2022/11/09 06:44:58;;;;;;;5.07;2.33;;;11.70;99.90;;;;;;5045498;28;20485;-77
2022/11/09 06:47:24;;;;;;;4.65;2.10;;;11.60;99.90;;;;;;5046648;28;20076;-77
2022/11/09 06:49:49;;;;;;;6.18;2.95;;;11.70;99.90;;;;;;5046945;28;20045;-78
2022/11/09 06:52:15;;;;;;;5.00;2.22;;;11.70;99.90;;;;;;5044606;28;20052;-78
2022/11/09 06:54:41;;;;;;;4.63;2.38;;;11.60;99.90;;;;;;5044825;28;20133;-78
2022/11/09 06:57:06;;;;;;;6.00;2.72;;;11.70;99.90;;;;;;5052920;28;20813;-77
2022/11/09 06:59:33;;;;;;;4.85;2.42;;;11.70;99.90;;;;;;5050333;28;20056;-78
2022/11/09 07:01:59;;;;;;;4.53;2.33;;;11.70;99.90;;;;;;5044900;28;20076;-78
2022/11/09 07:04:24;;;;;;;6.35;2.85;;;11.70;99.90;;;;;;5051717;28;20842;-78
2022/11/09 07:06:50;;;;;;;3.22;2.10;;;11.70;99.90;;;;;;5047038;28;20044;-78
2022/11/09 07:09:16;;;;;;;4.03;3.08;;;11.70;99.90;;;;;;5045314;28;20064;-77
2022/11/09 07:11:41;;;;;;;5.00;2.58;;;11.70;99.90;;;;;;5045141;28;20059;-79
2022/11/09 07:14:07;;;;;;;5.10;2.42;;;11.80;99.90;;;;;;5047586;28;20054;-77
2022/11/09 07:16:33;;;;;;;9.45;2.30;;;11.80;99.90;;;;;;5051312;28;20071;-78
2022/11/09 07:18:59;;;;;;;4.75;2.15;;;11.80;99.90;;;;;;5050114;28;20182;-78
2022/11/09 07:21:25;;;;;;;5.03;2.28;;;11.80;99.90;;;;;;5043421;28;20044;-79
2022/11/09 07:23:51;;;;;;;6.57;2.13;;;11.80;99.90;;;;;;5038302;28;20072;-78
2022/11/09 07:26:17;;;;;;;6.32;2.05;;;11.70;99.90;;;;;;5047983;28;20067;-79
2022/11/09 07:28:42;;;;;;;6.57;2.65;;;11.70;99.90;;;;;;5041345;28;20044;-78
2022/11/09 07:31:09;;;;;;;6.85;2.80;;;11.80;99.90;;;;;;5039691;28;20864;-78
2022/11/09 07:33:35;;;;;;;9.00;2.13;;;11.80;99.90;;;;;;5040484;28;20045;-78
2022/11/09 07:36:02;;;;;;;5.47;2.58;;;11.80;99.90;;;;;;5041487;28;20048;-78
2022/11/09 07:38:28;;;;;;;10.35;2.47;;;11.80;99.90;;;;;;5045605;28;20048;-78
2022/11/09 07:40:59;;;;;;;5.72;2.30;;;11.80;99.90;;;;;;5057282;28;20041;-78
2022/11/09 07:43:25;;;;;;;9.63;4.00;;;11.80;99.90;;;;;;5042919;28;20044;-77
2022/11/09 07:45:50;;;;;;;6.15;2.42;;;11.80;99.90;;;;;;5048051;28;20043;-77
2022/11/09 07:48:16;;;;;;;4.93;2.35;;;11.80;99.90;;;;;;5044979;28;20159;-79
2022/11/09 07:50:42;;;;;;;5.72;2.50;;;11.80;99.90;;;;;;5044723;28;20071;-80
2022/11/09 07:53:11;;;;;;;7.70;3.08;;;11.90;99.90;;;;;;5040828;28;20404;-80
2022/11/09 07:55:37;;;;;;;4.68;2.35;;;11.90;99.90;;;;;;5041633;28;20067;-79
2022/11/09 07:58:12;;;;;;;10.52;3.03;;;11.90;99.90;;;;;;5061942;28;21349;-83
2022/11/09 08:00:39;;;;;;;5.38;3.03;;;11.90;99.90;;;;;;5040716;28;20044;-77
2022/11/09 08:03:06;;;;;;;7.72;2.42;;;12.00;99.90;;;;;;5045671;28;20143;-80
2022/11/09 08:05:32;;;;;;;8.38;2.38;;;12.00;99.90;;;;;;5046162;28;20447;-80
2022/11/09 08:08:01;;;;;;;10.35;2.65;;;12.00;99.90;;;;;;5047579;28;20055;-81
2022/11/09 08:10:28;;;;;;;4.93;2.42;;;12.00;99.90;;;;;;5046192;28;20125;-80
2022/11/09 08:13:01;;;;;;;3.70;2.35;;;12.10;99.90;;;;;;5050337;28;20052;-81
2022/11/09 08:15:27;;;;;;;5.18;2.38;;;12.10;99.90;;;;;;5044460;28;20849;-81
2022/11/09 08:17:57;;;;;;;6.70;2.58;;;12.20;99.90;;;;;;5043099;28;20071;-80
2022/11/09 08:20:22;;;;;;;7.53;2.53;;;12.30;99.90;;;;;;5039990;28;20040;-80
2022/11/09 08:22:48;;;;;;;4.55;1.95;;;12.30;99.90;;;;;;5046526;28;20048;-80
2022/11/09 08:25:14;;;;;;;8.05;2.53;;;12.30;99.90;;;;;;5042998;28;20097;-79
2022/11/09 08:27:40;;;;;;;5.97;2.60;;;12.40;99.90;;;;;;5049299;28;20810;-80
2022/11/09 08:30:12;;;;;;;5.82;2.92;;;12.40;99.90;;;;;;5048920;28;20045;-82
2022/11/09 08:32:38;;;;;;;10.15;2.90;;;12.50;99.90;;;;;;5048829;28;20548;-80
2022/11/09 08:35:05;;;;;;;4.90;2.47;;;12.50;99.90;;;;;;5042658;28;20052;-80
2022/11/09 08:37:33;;;;;;;6.13;2.47;;;12.50;99.90;;;;;;5025133;28;20071;-80
2022/11/09 08:39:58;;;;;;;7.90;2.88;;;12.60;99.90;;;;;;5043656;28;20080;-80
2022/11/09 08:42:24;;;;;;;5.03;2.55;;;12.60;99.90;;;;;;5045660;28;20552;-80
2022/11/09 08:44:50;;;;;;;7.95;2.75;;;12.60;99.90;;;;;;5047059;28;21020;-80
2022/11/09 08:47:15;;;;;;;3.97;2.13;;;12.70;99.90;;;;;;5042153;28;20059;-81
2022/11/09 08:49:42;;;;;;;7.70;3.42;;;12.70;99.90;;;;;;5045655;28;20056;-80
2022/11/09 08:52:08;;;;;;;3.10;2.08;;;12.70;99.90;;;;;;5046296;28;20086;-81
2022/11/09 08:54:35;;;;;;;7.07;2.85;;;12.70;99.90;;;;;;5048881;28;20071;-81
2022/11/09 08:57:01;;;;;;;6.43;2.80;;;12.80;99.90;;;;;;5044055;28;20079;-81
2022/11/09 08:59:26;;;;;;;6.72;3.00;;;12.80;99.90;;;;;;5045863;28;20049;-82
2022/11/09 09:01:52;;;;;;;5.85;2.95;;;12.80;99.90;;;;;;5049763;28;20048;-81
2022/11/09 09:04:18;;;;;;;6.28;2.60;;;12.90;99.90;;;;;;5048738;28;20049;-82
2022/11/09 09:06:44;;;;;;;7.78;3.13;;;12.90;99.90;;;;;;5047360;28;20048;-80
2022/11/09 09:09:10;;;;;;;7.10;2.97;;;13.00;99.90;;;;;;5047909;28;20049;-79
2022/11/09 09:11:35;;;;;;;4.65;2.40;;;13.00;99.90;;;;;;5047189;28;20036;-80
2022/11/09 09:14:01;;;;;;;5.30;2.85;;;13.10;99.90;;;;;;5040515;28;20155;-81
2022/11/09 09:16:27;;;;;;;9.85;2.88;;;13.10;99.90;;;;;;5043656;28;20053;-79
2022/11/09 09:18:53;;;;;;;7.22;3.08;;;13.20;99.90;;;;;;5048717;28;20056;-79
2022/11/09 09:21:19;;;;;;;6.35;2.90;;;13.20;99.90;;;;;;5052438;28;20057;-80
2022/11/09 09:23:48;;;;;;;5.07;2.90;;;13.30;99.90;;;;;;5041118;28;20958;-79
2022/11/09 09:26:14;;;;;;;5.15;2.67;;;13.30;99.90;;;;;;5045774;28;20044;-79
2022/11/09 09:28:39;;;;;;;6.40;2.50;;;13.40;99.90;;;;;;5048160;28;20045;-78
2022/11/09 09:31:05;;;;;;;10.48;2.22;;;13.50;99.90;;;;;;5039778;28;20063;-79
2022/11/09 09:33:31;;;;;;;9.25;2.97;;;13.50;99.90;;;;;;5048571;28;20152;-79
2022/11/09 09:35:58;;;;;;;7.50;3.83;;;13.60;99.90;;;;;;5051946;28;20049;-79
2022/11/09 09:38:25;;;;;;;7.00;2.97;;;13.60;99.90;;;;;;5044608;28;20051;-76
2022/11/09 09:41:00;;;;;;;5.90;3.03;;;13.60;99.90;;;;;;5051958;28;20049;-77
2022/11/09 09:43:41;;;;;;;7.43;3.10;;;13.60;99.90;;;;;;5047916;28;20048;-78
2022/11/09 09:46:17;;;;;;;6.47;3.13;;;13.60;99.90;;;;;;5057595;28;20109;-79
2022/11/09 09:48:58;;;;;;;4.30;3.03;;;13.70;99.90;;;;;;5042120;28;20052;-78
2022/11/09 09:51:36;;;;;;;6.00;2.67;;;13.80;99.90;;;;;;5059565;28;20052;-78
2022/11/09 09:54:13;;;;;;;6.28;3.30;;;13.80;99.90;;;;;;5057002;28;20217;-78
2022/11/09 09:56:42;;;;;;;9.93;3.45;;;13.80;99.90;;;;;;5056215;28;20056;-79
2022/11/09 09:59:23;;;;;;;9.98;3.33;;;13.90;99.90;;;;;;5040276;28;20053;-78
2022/11/09 10:01:49;;;;;;;6.93;2.70;;;14.00;99.90;;;;;;5052861;28;20060;-79
2022/11/09 10:04:22;;;;;;;10.90;3.88;;;14.00;99.90;;;;;;5055827;28;20049;-80
2022/11/09 10:07:10;;;;;;;5.70;3.28;;;14.00;99.90;;;;;;5046499;28;20775;-80
2022/11/09 10:10:09;;;;;;;9.80;3.03;;;14.00;99.90;;;;;;5050711;28;20063;-78
2022/11/09 10:12:49;;;;;;;7.88;3.40;;;14.10;99.90;;;;;;5043857;28;20048;-79
2022/11/09 10:15:33;;;;;;;6.50;2.50;;;14.10;99.90;;;;;;5050900;28;20135;-79
2022/11/09 10:18:08;;;;;;;5.75;3.00;;;14.20;99.90;;;;;;5045214;28;20167;-80
2022/11/09 10:20:36;;;;;;;7.13;3.25;;;14.20;99.90;;;;;;5050239;28;20045;-78
2022/11/09 10:23:46;;;;;;;7.38;3.58;;;14.20;99.90;;;;;;5048924;28;20626;-80
2022/11/09 10:26:25;;;;;;;10.98;3.30;;;14.20;99.90;;;;;;5045424;28;20519;-80
2022/11/09 10:28:58;;;;;;;7.55;3.70;;;14.40;99.90;;;;;;5049324;28;20060;-80
2022/11/09 10:31:28;;;;;;;11.07;3.75;;;14.40;99.90;;;;;;5041724;28;20048;-80
2022/11/09 10:34:00;;;;;;;8.45;3.30;;;14.40;99.90;;;;;;5060335;28;20147;-80
2022/11/09 10:36:43;;;;;;;8.73;3.37;;;14.40;99.90;;;;;;5053741;28;20414;-79
2022/11/09 10:39:13;;;;;;;7.68;3.83;;;14.50;99.90;;;;;;5043744;28;20696;-80
2022/11/09 10:41:43;;;;;;;9.70;3.38;;;14.50;99.90;;;;;;5051084;28;20051;-80
2022/11/09 10:44:17;;;;;;;6.90;2.92;;;14.60;99.90;;;;;;5042797;28;20173;-81
2022/11/09 10:47:01;;;;;;;5.05;3.75;;;14.60;99.90;;;;;;5023990;28;21232;-80
2022/11/09 10:49:26;;;;;;;7.68;2.65;;;14.70;99.90;;;;;;5050692;28;20051;-78
2022/11/09 10:51:52;;;;;;;8.10;2.95;;;14.80;99.90;;;;;;5050959;28;20400;-79
2022/11/09 10:54:21;;;;;;;12.88;3.55;;;14.80;99.90;;;;;;5050650;28;20785;-79
2022/11/09 10:57:11;;;;;;;11.20;3.80;;;14.90;99.90;;;;;;5051622;28;20048;-79
2022/11/09 10:59:44;;;;;;;6.72;2.97;;;14.80;99.90;;;;;;5045597;28;20076;-78
2022/11/09 11:02:43;;;;;;;6.28;4.05;;;14.80;99.90;;;;;;5042875;28;20072;-80
2022/11/09 11:05:09;;;;;;;10.35;3.08;;;14.80;99.90;;;;;;5047520;28;20172;-80
2022/11/09 11:07:35;;;;;;;5.05;3.08;;;14.70;99.90;;;;;;5050432;28;20044;-80
2022/11/09 11:10:16;;;;;;;8.35;2.95;;;14.60;99.90;;;;;;5052284;28;20044;-80
2022/11/09 11:12:43;;;;;;;8.98;3.30;;;14.80;99.90;;;;;;5040767;28;20052;-81
2022/11/09 11:15:27;;;;;;;6.65;2.92;;;14.80;99.90;;;;;;5052183;28;20064;-80
2022/11/09 11:18:15;;;;;;;9.75;3.55;;;14.80;99.90;;;;;;5053874;28;20079;-81
2022/11/09 11:20:40;;;;;;;6.75;3.38;;;14.80;99.90;;;;;;5054312;28;20163;-81
2022/11/09 11:23:12;;;;;;;6.07;3.33;;;14.70;99.90;;;;;;5040283;28;20045;-81
2022/11/09 11:25:56;;;;;;;7.78;3.25;;;14.80;99.90;;;;;;5040289;28;20076;-81
2022/11/09 11:28:25;;;;;;;12.38;4.20;;;14.80;99.90;;;;;;5047416;28;20123;-81
2022/11/09 11:30:51;;;;;;;7.72;3.38;;;14.80;99.90;;;;;;5047354;28;20145;-81
2022/11/09 11:33:18;;;;;;;9.70;3.67;;;14.80;99.90;;;;;;5044400;28;20579;-80
2022/11/09 11:36:05;;;;;;;10.40;4.38;;;14.80;99.90;;;;;;5043138;28;20085;-77
2022/11/09 11:38:56;;;;;;;7.85;3.33;;;14.70;99.90;;;;;;5050540;28;20110;-81
2022/11/09 11:41:45;;;;;;;11.52;4.28;;;14.70;99.90;;;;;;5041056;28;20044;-82
2022/11/09 11:44:45;;;;;;;6.38;3.97;;;14.60;99.90;;;;;;5051882;28;20068;-81
2022/11/09 11:47:20;;;;;;;5.40;3.30;;;14.60;99.90;;;;;;4966167;28;20054;-81
2022/11/09 11:49:45;;;;;;;6.78;3.67;;;14.60;99.90;;;;;;5037388;28;20060;-82
2022/11/09 11:52:43;;;;;;;5.82;3.13;;;14.60;99.90;;;;;;5052582;28;20048;-81
2022/11/09 11:55:20;;;;;;;4.22;2.95;;;14.60;99.90;;;;;;5013455;28;20057;-80
2022/11/09 11:58:04;;;;;;;6.00;3.28;;;14.70;99.90;;;;;;5049451;28;20037;-80
2022/11/09 12:00:38;;;;;;;5.13;2.85;;;14.70;99.90;;;;;;5041246;28;20560;-80
2022/11/09 12:03:17;;;;;;;9.18;3.75;;;14.70;99.90;;;;;;5058931;28;20114;-80
2022/11/09 12:05:51;;;;;;;9.45;3.40;;;14.80;99.90;;;;;;5070739;28;20041;-80
2022/11/09 12:08:30;;;;;;;7.40;3.80;;;14.80;99.90;;;;;;5040263;28;20052;-81
2022/11/09 12:11:07;;;;;;;5.95;3.10;;;14.70;99.90;;;;;;5039496;28;20132;-80
2022/11/09 12:13:57;;;;;;;4.65;3.42;;;14.70;99.90;;;;;;5053391;28;20248;-80
2022/11/09 12:16:42;;;;;;;6.35;3.15;;;14.60;99.90;;;;;;5050714;28;20098;-80
2022/11/09 12:19:33;;;;;;;7.85;3.03;;;14.50;99.90;;;;;;5042091;28;20123;-82
2022/11/09 12:22:07;;;;;;;6.00;3.47;;;14.50;99.90;;;;;;5049942;28;20048;-80
2022/11/09 12:25:01;;;;;;;6.82;2.92;;;14.50;99.90;;;;;;5049774;28;20060;-81
2022/11/09 12:27:58;;;;;;;5.85;2.75;;;14.50;99.90;;;;;;5039848;28;20079;-82
2022/11/09 12:30:36;;;;;;;5.63;2.50;;;14.40;99.90;;;;;;5039611;28;20126;-81
2022/11/09 12:33:28;;;;;;;8.38;3.05;;;14.40;99.90;;;;;;5040293;28;20598;-82
2022/11/09 12:35:59;;;;;;;4.63;2.63;;;14.30;99.90;;;;;;5041062;28;20052;-81
2022/11/09 12:38:50;;;;;;;5.75;2.97;;;14.20;99.90;;;;;;5045075;28;20047;-84
2022/11/09 12:41:20;;;;;;;9.75;3.53;;;14.10;99.90;;;;;;5037487;28;20044;-82
2022/11/09 12:44:01;;;;;;;5.55;2.55;;;14.10;99.90;;;;;;5036996;28;20120;-83
2022/11/09 12:46:33;;;;;;;9.43;3.28;;;14.10;99.90;;;;;;5042082;28;20617;-82
2022/11/09 12:49:02;;;;;;;5.30;3.03;;;14.20;99.90;;;;;;5043996;28;20060;-81
2022/11/09 12:51:29;;;;;;;7.80;2.67;;;14.20;99.90;;;;;;5043893;28;20397;-82
2022/11/09 12:53:56;;;;;;;4.95;2.17;;;14.20;99.90;;;;;;5038718;28;20369;-81
2022/11/09 12:56:32;;;;;;;8.63;2.50;;;14.20;99.90;;;;;;5040711;28;20858;-81
2022/11/09 12:59:33;;;;;;;7.78;3.63;;;14.20;99.90;;;;;;5038593;28;20632;-81